首页
METAR-TAF:

METAR-TAF

机场 :

Homestead, 佛罗里达州, 美国

纬度: 25-29N, 经度: 080-23W, 海拔: 2米

当前天气观测

该预报发布于1小时和19分钟前的14:56 UTC
风速15节,风向东北
温度 28°C
湿度 74%
气压 1015 hPa
能見度: 16.1公里
少量云层高于2500英尺
多云层高于3800英尺

METAR: KHST 231456Z AUTO 04015KT 10SM FEW025 BKN038 28/23 A2997 RMK AO2 SLP152 T02830225 52012 FZRANO TSNO $

时间: 12:15 (16:15 UTC)

预报

该预报发布于8小时和15分钟前的08:00 UTC
预报有效从23日的 08点(UTC)到 24日的 14点(UTC)
风速12节,风向东北
能见度10公里或以上
散云层高于2500英尺
散云层高于3500英尺
成为
从 23日的 15点(UTC)到 23日的 16点(UTC)
风速15节,风向东北
能见度10公里或以上
散云层高于3000英尺

TAF: KHST 230800Z 2308/2414 04012KT 9999 SCT025 SCT035 QNH2990INS BECMG 2315/2316 04015KT 9999 SCT030 QNH2987INS TX28/2318Z TN24/2311Z

超过4000个机场的气象观测和天气预报(METAR&TAF报告)。

可查询的气象台以黄色和红色小点在地图上表示。

将鼠标移到小点上方,可查看气象台名称。

然后点击查看天气观测和预报。

如需切换地图:点击带黑十字的绿色按钮放大地图;点击带横线的绿色按钮缩小地图;或者点击绿色箭头查看邻近地区的地图。


METAR-TAF: